Time;durP1;ratioP1;P1;durP2;ratioP2;P2;SDS_P1;SDS_P2;PMS_P1;PMS_P2;Temp;Humidity;BMP_temperature;BMP_pressure;BME280_temperature;BME280_humidity;BME280_pressure;Samples;Min_cycle;Max_cycle;Signal;HPM_P1;HPM_P2
2020/12/05 00:00:34;;;;;;;41.50;23.87;;;;;;;-0.64;100.00;100941.50;1750401;82;21596;-66
2020/12/05 00:03:01;;;;;;;39.70;21.90;;;;;;;-0.60;100.00;100942.03;1776097;80;21350;-64
2020/12/05 00:05:29;;;;;;;38.70;18.37;;;;;;;-0.63;100.00;100943.66;1787956;80;21228;-63
2020/12/05 00:07:58;;;;;;;42.43;23.67;;;;;;;-0.65;100.00;100947.76;1765487;81;21184;-63
2020/12/05 00:10:26;;;;;;;37.60;22.40;;;;;;;-0.61;100.00;100949.61;1787411;80;21168;-64
2020/12/05 00:12:54;;;;;;;44.67;25.83;;;;;;;-0.57;100.00;100946.53;1726732;83;21573;-65
2020/12/05 00:15:22;;;;;;;53.27;26.97;;;;;;;-0.53;100.00;100941.80;1751561;81;21464;-64
2020/12/05 00:17:50;;;;;;;29.77;17.20;;;;;;;-0.53;100.00;100948.41;1787811;80;21194;-63
2020/12/05 00:20:17;;;;;;;43.80;24.93;;;;;;;-0.55;100.00;100959.60;1751128;80;21148;-68
2020/12/05 00:22:45;;;;;;;42.60;22.33;;;;;;;-0.56;100.00;100952.16;1767402;80;21734;-64
2020/12/05 00:25:13;;;;;;;38.40;22.70;;;;;;;-0.60;100.00;100957.40;1783055;80;21598;-64
2020/12/05 00:27:41;;;;;;;45.77;24.13;;;;;;;-0.63;100.00;100955.06;1783295;80;21206;-64
2020/12/05 00:30:09;;;;;;;48.63;25.27;;;;;;;-0.60;100.00;100958.72;1783542;80;21114;-68
2020/12/05 00:32:37;;;;;;;43.70;25.03;;;;;;;-0.55;100.00;100960.44;1782623;80;21121;-63
2020/12/05 00:35:07;;;;;;;42.00;23.53;;;;;;;-0.53;100.00;100955.81;1774955;80;21130;-65
2020/12/05 00:37:35;;;;;;;42.70;24.37;;;;;;;-0.53;100.00;100953.17;1772696;81;21090;-74
2020/12/05 00:40:05;;;;;;;46.57;24.10;;;;;;;-0.54;100.00;100961.27;1772528;81;21485;-69
2020/12/05 00:42:32;;;;;;;38.83;21.17;;;;;;;-0.56;100.00;100953.48;1740298;82;21209;-64
2020/12/05 00:45:01;;;;;;;48.27;22.97;;;;;;;-0.54;100.00;100942.77;1750474;81;21007;-65
2020/12/05 00:47:29;;;;;;;38.90;25.67;;;;;;;-0.59;100.00;100944.54;1740228;82;21201;-64
2020/12/05 00:49:58;;;;;;;36.87;21.17;;;;;;;-0.63;100.00;100939.20;1734389;81;21200;-64
2020/12/05 00:52:25;;;;;;;44.93;25.13;;;;;;;-0.60;100.00;100951.28;1773621;80;21375;-65
2020/12/05 00:54:54;;;;;;;45.43;27.93;;;;;;;-0.55;100.00;100953.83;1750216;80;21638;-67
2020/12/05 00:57:22;;;;;;;41.80;22.67;;;;;;;-0.52;100.00;100954.01;1777640;80;21765;-71
2020/12/05 00:59:52;;;;;;;50.97;25.77;;;;;;;-0.50;100.00;100963.47;1725891;82;21204;-64
2020/12/05 01:02:23;;;;;;;36.87;21.83;;;;;;;-0.56;100.00;100961.89;1749061;82;21053;-63
2020/12/05 01:04:50;;;;;;;38.10;20.00;;;;;;;-0.53;100.00;100958.98;1748968;82;21393;-64
2020/12/05 01:07:25;;;;;;;44.10;24.63;;;;;;;-0.49;100.00;100968.27;1729468;83;21634;-67
2020/12/05 01:09:54;;;;;;;47.07;25.33;;;;;;;-0.52;100.00;100957.97;1735481;82;21154;-66
2020/12/05 01:12:21;;;;;;;50.17;26.03;;;;;;;-0.49;100.00;100958.53;1746375;81;21598;-64
2020/12/05 01:14:49;;;;;;;41.70;19.87;;;;;;;-0.44;100.00;100944.88;1754138;80;21602;-64
2020/12/05 01:17:25;;;;;;;41.57;23.70;;;;;;;-0.43;100.00;100943.06;1727151;81;21390;-63
2020/12/05 01:19:52;;;;;;;37.53;21.10;;;;;;;-0.41;100.00;100936.64;1727823;81;21638;-64
2020/12/05 01:22:22;;;;;;;48.07;28.50;;;;;;;-0.40;100.00;100946.72;1751716;80;21144;-65
2020/12/05 01:24:51;;;;;;;47.10;26.73;;;;;;;-0.39;100.00;100947.07;1758797;81;21165;-64
2020/12/05 01:27:18;;;;;;;46.13;25.37;;;;;;;-0.36;100.00;100949.41;1780064;80;21590;-64
2020/12/05 01:29:46;;;;;;;45.50;24.67;;;;;;;-0.26;100.00;100954.98;1779817;80;21317;-64
2020/12/05 01:32:14;;;;;;;38.83;21.30;;;;;;;-0.21;100.00;100942.64;1777413;80;21054;-63
2020/12/05 01:34:42;;;;;;;42.20;25.03;;;;;;;-0.31;100.00;100957.72;1779807;80;21113;-66
2020/12/05 01:37:10;;;;;;;48.20;27.23;;;;;;;-0.30;100.00;100950.98;1779756;80;21165;-64
2020/12/05 01:39:37;;;;;;;44.97;25.07;;;;;;;-0.30;100.00;100948.82;1779779;80;21650;-63
2020/12/05 01:42:05;;;;;;;30.73;18.67;;;;;;;-0.34;100.00;100950.10;1766507;80;21438;-69
2020/12/05 01:44:33;;;;;;;41.17;23.77;;;;;;;-0.38;100.00;100928.92;1752354;80;21179;-64
2020/12/05 01:47:02;;;;;;;41.93;23.40;;;;;;;-0.44;100.00;100930.34;1734555;82;21186;-65
2020/12/05 01:49:29;;;;;;;43.17;22.80;;;;;;;-0.41;100.00;100924.74;1758853;81;21593;-64
2020/12/05 01:51:57;;;;;;;38.83;22.13;;;;;;;-0.37;100.00;100936.67;1759485;81;21539;-64
2020/12/05 01:54:25;;;;;;;36.03;20.20;;;;;;;-0.41;100.00;100945.05;1759528;81;21791;-64
2020/12/05 01:56:59;;;;;;;45.10;24.93;;;;;;;-0.44;100.00;100948.84;1754876;81;21152;-66
2020/12/05 01:59:27;;;;;;;30.70;20.05;;;;;;;-0.42;100.00;100952.14;1753523;81;21129;-65
2020/12/05 02:02:01;;;;;;;45.37;23.93;;;;;;;-0.43;100.00;100953.12;1738672;81;20990;-65
2020/12/05 02:04:41;;;;;;;35.33;20.97;;;;;;;-0.47;100.00;100939.87;1746908;81;21576;-67
2020/12/05 02:07:20;;;;;;;43.40;21.73;;;;;;;-0.51;100.00;100948.59;1701326;82;21423;-66
2020/12/05 02:09:52;;;;;;;42.23;24.93;;;;;;;-0.57;100.00;100943.05;1751699;81;20982;-65
2020/12/05 02:12:39;;;;;;;40.33;22.57;;;;;;;-0.56;100.00;100946.04;1754012;81;21630;-64
2020/12/05 02:15:12;;;;;;;35.63;20.53;;;;;;;-0.53;100.00;100949.73;1743922;82;21126;-65
2020/12/05 02:18:01;;;;;;;36.73;20.97;;;;;;;-0.47;100.00;100947.80;1757474;81;21125;-64
2020/12/05 02:20:30;;;;;;;32.90;20.67;;;;;;;-0.52;100.00;100952.20;1733783;81;21721;-65
2020/12/05 02:23:15;;;;;;;43.77;25.93;;;;;;;-0.48;100.00;100959.37;1746496;81;21611;-66
2020/12/05 02:25:56;;;;;;;36.50;20.17;;;;;;;-0.43;100.00;100953.12;1846263;76;22317;-64
2020/12/05 02:28:23;;;;;;;41.03;22.67;;;;;;;-0.43;100.00;100954.96;1817128;79;20991;-64
2020/12/05 02:30:51;;;;;;;41.03;23.93;;;;;;;-0.45;100.00;100958.58;1817192;79;21381;-64
2020/12/05 02:33:19;;;;;;;35.03;20.73;;;;;;;-0.42;100.00;100960.56;1817166;79;20963;-64
2020/12/05 02:35:48;;;;;;;49.70;28.27;;;;;;;-0.41;100.00;100950.34;1808139;79;20998;-65
2020/12/05 02:38:38;;;;;;;49.90;25.17;;;;;;;-0.44;100.00;100954.12;1785251;79;20944;-64
2020/12/05 02:41:06;;;;;;;38.63;21.10;;;;;;;-0.41;100.00;100951.17;1785037;80;21007;-66
2020/12/05 02:43:34;;;;;;;27.93;17.67;;;;;;;-0.42;100.00;100949.98;1789310;79;22314;-67
2020/12/05 02:46:02;;;;;;;40.37;24.00;;;;;;;-0.35;100.00;100955.04;1785133;79;21815;-64
2020/12/05 02:48:29;;;;;;;39.43;24.10;;;;;;;-0.32;100.00;100964.81;1817372;79;21560;-62
2020/12/05 02:50:57;;;;;;;32.37;19.57;;;;;;;-0.36;100.00;100961.30;1800117;79;21665;-65
2020/12/05 02:53:24;;;;;;;33.67;19.60;;;;;;;-0.36;100.00;100972.70;1785224;79;21545;-65
2020/12/05 02:55:52;;;;;;;34.27;22.47;;;;;;;-0.32;100.00;100981.16;1784934;79;21434;-63
2020/12/05 02:58:20;;;;;;;40.23;24.27;;;;;;;-0.31;100.00;100986.31;1784973;80;21149;-63
2020/12/05 03:00:47;;;;;;;40.57;23.47;;;;;;;-0.28;100.00;100980.72;1796353;79;21138;-64
2020/12/05 03:03:15;;;;;;;44.10;27.07;;;;;;;-0.27;100.00;100970.49;1817032;79;21583;-66
2020/12/05 03:05:42;;;;;;;33.70;19.53;;;;;;;-0.26;100.00;100976.62;1815011;79;21559;-64
2020/12/05 03:08:10;;;;;;;38.37;20.60;;;;;;;-0.28;100.00;100972.78;1814808;79;21379;-65
2020/12/05 03:10:37;;;;;;;32.93;19.63;;;;;;;-0.34;100.00;100969.44;1784930;80;21170;-64
2020/12/05 03:13:05;;;;;;;34.13;18.53;;;;;;;-0.37;100.00;100973.67;1784961;80;21022;-64
2020/12/05 03:15:32;;;;;;;36.93;23.20;;;;;;;-0.36;100.00;100975.84;1784884;80;21590;-66
2020/12/05 03:18:00;;;;;;;32.77;19.33;;;;;;;-0.37;100.00;100971.52;1763664;80;21109;-65
2020/12/05 03:20:28;;;;;;;40.00;20.33;;;;;;;-0.36;100.00;100974.52;1754473;80;21803;-64
2020/12/05 03:22:56;;;;;;;32.43;17.20;;;;;;;-0.35;100.00;100979.66;1753844;81;21034;-64
2020/12/05 03:25:24;;;;;;;31.03;19.37;;;;;;;-0.30;100.00;100984.02;1753791;81;21152;-64
2020/12/05 03:27:52;;;;;;;31.87;16.07;;;;;;;-0.23;100.00;100981.11;1754202;81;21653;-65
2020/12/05 03:30:19;;;;;;;45.83;24.47;;;;;;;-0.21;100.00;100977.00;1777750;80;21606;-63
2020/12/05 03:32:48;;;;;;;31.30;19.17;;;;;;;-0.21;100.00;100965.94;1785057;80;21200;-64
2020/12/05 03:35:15;;;;;;;33.97;17.77;;;;;;;-0.30;100.00;100976.58;1774406;79;21593;-65
2020/12/05 03:37:44;;;;;;;37.53;22.43;;;;;;;-0.33;100.00;100971.56;1762241;80;21022;-64
2020/12/05 03:40:12;;;;;;;31.00;17.17;;;;;;;-0.33;100.00;100971.56;1751736;81;21865;-66
2020/12/05 03:42:40;;;;;;;35.73;18.33;;;;;;;-0.35;100.00;100971.73;1754958;80;21101;-65
2020/12/05 03:45:08;;;;;;;28.83;16.23;;;;;;;-0.31;100.00;100978.88;1753317;81;22108;-64
2020/12/05 03:47:35;;;;;;;41.47;22.90;;;;;;;-0.24;100.00;100978.12;1753291;81;21132;-64
2020/12/05 03:50:06;;;;;;;45.43;24.57;;;;;;;-0.19;100.00;100973.22;1767195;80;21135;-64
2020/12/05 03:52:33;;;;;;;39.47;23.17;;;;;;;-0.16;100.00;100970.30;1754857;80;20998;-64
2020/12/05 03:55:01;;;;;;;36.93;21.67;;;;;;;-0.08;100.00;100981.43;1753385;81;21594;-63
2020/12/05 03:57:29;;;;;;;44.73;22.47;;;;;;;-0.05;100.00;100982.47;1754105;80;21199;-63
2020/12/05 03:59:57;;;;;;;32.40;19.40;;;;;;;0.00;100.00;100980.22;1753426;81;21562;-65
2020/12/05 04:02:25;;;;;;;42.97;22.73;;;;;;;-0.02;100.00;100977.70;1753357;81;21137;-65
2020/12/05 04:04:52;;;;;;;39.77;19.40;;;;;;;-0.07;100.00;100985.26;1774761;80;22230;-65
2020/12/05 04:07:20;;;;;;;39.33;19.70;;;;;;;-0.08;100.00;100987.55;1784364;80;21121;-64
2020/12/05 04:09:47;;;;;;;38.23;22.83;;;;;;;-0.07;100.00;100981.78;1783386;80;21790;-65
2020/12/05 04:12:15;;;;;;;40.17;21.97;;;;;;;-0.04;100.00;100980.98;1754421;80;21109;-65
2020/12/05 04:14:43;;;;;;;48.83;24.60;;;;;;;-0.03;100.00;100988.43;1754752;81;22346;-64
2020/12/05 04:17:11;;;;;;;40.33;22.13;;;;;;;-0.06;100.00;100992.70;1753915;80;21648;-64
2020/12/05 04:19:39;;;;;;;48.17;27.83;;;;;;;-0.07;100.00;100993.19;1754107;80;21105;-63
2020/12/05 04:22:07;;;;;;;41.73;22.60;;;;;;;-0.13;100.00;100993.78;1753309;81;21389;-64
2020/12/05 04:24:35;;;;;;;40.73;23.67;;;;;;;-0.12;100.00;101006.52;1756263;81;21204;-64
2020/12/05 04:27:02;;;;;;;39.50;20.17;;;;;;;-0.12;100.00;101011.31;1780521;79;21174;-64
2020/12/05 04:29:30;;;;;;;37.73;21.43;;;;;;;-0.15;100.00;101008.14;1767845;79;21113;-65
2020/12/05 04:31:58;;;;;;;37.33;20.63;;;;;;;-0.12;100.00;101007.34;1785084;79;21089;-64
2020/12/05 04:34:26;;;;;;;38.30;23.73;;;;;;;-0.09;100.00;101000.43;1798156;79;21406;-64
2020/12/05 04:36:55;;;;;;;40.93;20.73;;;;;;;-0.08;100.00;101008.71;1798757;79;21117;-64
2020/12/05 04:39:22;;;;;;;42.53;20.27;;;;;;;-0.04;100.00;101009.23;1798891;79;21601;-64
2020/12/05 04:41:50;;;;;;;32.10;19.53;;;;;;;-0.11;100.00;101006.86;1798803;79;21152;-64
2020/12/05 04:44:18;;;;;;;42.70;21.23;;;;;;;-0.10;100.00;100996.14;1798582;79;21175;-67
2020/12/05 04:46:46;;;;;;;28.80;15.60;;;;;;;-0.15;100.00;101005.02;1798818;79;21369;-80
2020/12/05 04:49:13;;;;;;;26.50;15.63;;;;;;;-0.19;100.00;101010.75;1797934;79;21590;-64
2020/12/05 04:51:41;;;;;;;30.63;16.20;;;;;;;-0.26;100.00;100998.59;1789515;79;21192;-65
2020/12/05 04:54:09;;;;;;;34.33;21.67;;;;;;;-0.28;100.00;101002.35;1767954;79;21108;-68
2020/12/05 04:56:39;;;;;;;29.60;19.23;;;;;;;-0.32;100.00;100998.34;1767516;81;21111;-66
2020/12/05 04:59:11;;;;;;;34.00;19.27;;;;;;;-0.32;100.00;101000.98;1768020;81;21354;-65
2020/12/05 05:01:39;;;;;;;35.50;20.43;;;;;;;-0.32;100.00;100999.66;1767895;79;21549;-68
2020/12/05 05:04:06;;;;;;;36.20;21.77;;;;;;;-0.32;100.00;100999.18;1770483;79;20986;-65
2020/12/05 05:06:34;;;;;;;31.70;19.70;;;;;;;-0.28;100.00;100993.94;1768302;79;21164;-65
2020/12/05 05:09:01;;;;;;;34.77;18.17;;;;;;;-0.23;100.00;100993.48;1767355;81;21214;-64
2020/12/05 05:11:30;;;;;;;37.57;21.57;;;;;;;-0.24;100.00;100998.45;1767327;81;21388;-63
2020/12/05 05:14:13;;;;;;;42.77;20.87;;;;;;;-0.27;100.00;100992.96;1781786;79;21141;-64
2020/12/05 05:16:29;;;;;;;39.67;19.30;;;;;;;-0.27;100.00;101000.05;1765275;81;21184;-65
2020/12/05 05:19:01;;;;;;;33.63;21.30;;;;;;;-0.31;100.00;101003.98;1767290;81;21083;-64
2020/12/05 05:21:40;;;;;;;37.33;21.87;;;;;;;-0.29;100.00;101008.64;1736479;79;21172;-63
2020/12/05 05:24:20;;;;;;;31.57;19.83;;;;;;;-0.26;100.00;101013.14;1797558;79;22088;-67
2020/12/05 05:27:05;;;;;;;39.90;22.23;;;;;;;-0.23;100.00;101017.28;1731390;81;21593;-63
2020/12/05 05:29:43;;;;;;;37.07;22.30;;;;;;;-0.22;100.00;101021.11;1782757;80;21026;-66
2020/12/05 05:32:15;;;;;;;28.67;14.67;;;;;;;-0.27;100.00;101006.18;1790116;80;21097;-62
2020/12/05 05:34:42;;;;;;;35.90;21.83;;;;;;;-0.31;100.00;101006.63;1737590;80;21117;-67
2020/12/05 05:37:19;;;;;;;32.47;19.43;;;;;;;-0.34;100.00;101010.41;1758884;80;21346;-65
2020/12/05 05:39:50;;;;;;;43.53;23.53;;;;;;;-0.29;100.00;101014.77;1758921;81;21172;-62
2020/12/05 05:42:32;;;;;;;32.07;17.67;;;;;;;-0.30;100.00;101009.61;1774047;80;21010;-65
2020/12/05 05:45:22;;;;;;;34.23;19.63;;;;;;;-0.30;100.00;101032.92;1760063;80;21184;-64
2020/12/05 05:47:53;;;;;;;34.90;21.00;;;;;;;-0.35;100.00;101025.92;1759218;80;21158;-67
2020/12/05 05:50:27;;;;;;;52.27;26.50;;;;;;;-0.30;100.00;101011.77;1757173;81;22289;-66
2020/12/05 05:52:58;;;;;;;46.40;23.97;;;;;;;-0.31;100.00;101015.39;1758647;81;21160;-65
2020/12/05 05:55:49;;;;;;;42.20;26.63;;;;;;;-0.30;100.00;101027.63;1758990;81;21621;-64
2020/12/05 05:58:19;;;;;;;43.63;25.10;;;;;;;-0.29;100.00;101009.48;1786055;80;21155;-63
2020/12/05 06:00:51;;;;;;;43.67;24.53;;;;;;;-0.30;100.00;101023.67;1779552;80;21169;-63
2020/12/05 06:03:28;;;;;;;30.03;18.57;;;;;;;-0.29;100.00;101021.86;1759011;80;21375;-66
2020/12/05 06:05:57;;;;;;;38.83;25.80;;;;;;;-0.28;100.00;101032.75;1775601;80;21045;-62
2020/12/05 06:08:29;;;;;;;47.87;28.30;;;;;;;-0.23;100.00;101025.21;1762837;80;21120;-63
2020/12/05 06:11:10;;;;;;;33.67;17.27;;;;;;;-0.21;100.00;101021.45;1759111;81;21125;-64
2020/12/05 06:13:37;;;;;;;45.63;23.20;;;;;;;-0.25;100.00;101031.16;1764361;80;21761;-63
2020/12/05 06:16:05;;;;;;;49.20;30.10;;;;;;;-0.26;100.00;101025.52;1788792;80;21371;-63
2020/12/05 06:18:33;;;;;;;37.37;24.43;;;;;;;-0.30;100.00;101013.58;1783436;80;21140;-67
2020/12/05 06:21:01;;;;;;;43.73;22.00;;;;;;;-0.30;100.00;101034.24;1786776;80;21053;-62
2020/12/05 06:23:49;;;;;;;59.07;34.23;;;;;;;-0.29;100.00;101029.30;1772682;80;21546;-62
2020/12/05 06:26:25;;;;;;;45.37;26.57;;;;;;;-0.24;100.00;101030.19;1765757;80;21152;-62
2020/12/05 06:28:53;;;;;;;58.17;35.17;;;;;;;-0.21;100.00;101044.42;1778913;80;21382;-62
2020/12/05 06:31:43;;;;;;;62.43;33.10;;;;;;;-0.22;100.00;101043.58;1790312;80;21156;-62
2020/12/05 06:34:32;;;;;;;64.23;35.10;;;;;;;-0.24;100.00;101044.20;1790435;79;21205;-62
2020/12/05 06:37:00;;;;;;;51.70;24.87;;;;;;;-0.24;100.00;101048.17;1768753;80;21566;-62
2020/12/05 06:39:28;;;;;;;43.20;25.60;;;;;;;-0.21;100.00;101036.48;1790416;80;21566;-64
2020/12/05 06:41:56;;;;;;;56.33;28.97;;;;;;;-0.22;100.00;101034.81;1787796;80;21192;-65
2020/12/05 06:44:36;;;;;;;65.43;33.90;;;;;;;-0.23;100.00;101043.72;1760055;80;21185;-63
2020/12/05 06:47:10;;;;;;;56.23;27.00;;;;;;;-0.22;100.00;101033.01;1779923;80;22278;-63
2020/12/05 06:49:41;;;;;;;;;;;;;;;-0.23;100.00;101038.43;1792844;80;21097;-62
2020/12/05 06:52:30;;;;;;;38.33;20.13;;;;;;;-0.24;100.00;101042.88;1779661;80;20281;-64
2020/12/05 06:55:08;;;;;;;57.83;28.07;;;;;;;-0.21;100.00;101048.38;1761590;80;23602;-69
2020/12/05 06:57:36;;;;;;;53.43;31.13;;;;;;;-0.22;100.00;101055.48;1779778;79;21160;-63
2020/12/05 07:00:25;;;;;;;46.20;27.53;;;;;;;-0.21;100.00;101053.67;1761929;80;21188;-63
2020/12/05 07:03:06;;;;;;;48.80;29.73;;;;;;;-0.21;100.00;101043.93;1770057;80;21575;-62
2020/12/05 07:05:37;;;;;;;56.37;31.33;;;;;;;-0.17;100.00;101048.42;1790305;80;21149;-64
2020/12/05 07:08:37;;;;;;;59.30;32.07;;;;;;;-0.14;100.00;101052.09;1774738;80;21436;-64
2020/12/05 07:11:12;;;;;;;61.93;32.77;;;;;;;-0.14;100.00;101048.95;1785189;80;21235;-64
2020/12/05 07:13:50;;;;;;;64.30;29.50;;;;;;;-0.16;100.00;101051.42;1759462;80;21125;-64
2020/12/05 07:16:26;;;;;;;57.07;32.03;;;;;;;-0.21;100.00;101056.31;1759317;81;21100;-63
2020/12/05 07:18:57;;;;;;;67.97;36.37;;;;;;;-0.19;100.00;101055.17;1759473;81;21654;-64
2020/12/05 07:21:26;;;;;;;67.10;33.33;;;;;;;-0.16;100.00;101057.55;1759224;80;21197;-63
2020/12/05 07:23:54;;;;;;;76.47;35.30;;;;;;;-0.17;100.00;101067.77;1759964;80;21164;-66
2020/12/05 07:26:22;;;;;;;48.83;22.50;;;;;;;-0.18;100.00;101070.06;1784686;79;21562;-63
2020/12/05 07:28:55;;;;;;;60.63;31.50;;;;;;;-0.16;100.00;101079.18;1796372;79;21002;-61
2020/12/05 07:31:23;;;;;;;57.97;29.10;;;;;;;-0.11;100.00;101084.86;1796421;79;21129;-61
2020/12/05 07:33:51;;;;;;;68.97;35.07;;;;;;;-0.03;100.00;101090.24;1793311;79;21193;-62
2020/12/05 07:36:19;;;;;;;65.53;35.57;;;;;;;-0.05;100.00;101098.83;1786547;80;21111;-64
2020/12/05 07:38:48;;;;;;;66.83;30.13;;;;;;;-0.04;100.00;101103.11;1749059;81;21125;-63
2020/12/05 07:41:20;;;;;;;51.70;26.00;;;;;;;-0.01;100.00;101102.36;1741727;81;21192;-66
2020/12/05 07:43:48;;;;;;;66.13;33.80;;;;;;;0.01;100.00;101095.58;1750278;80;21145;-61
2020/12/05 07:46:16;;;;;;;53.67;29.93;;;;;;;-0.02;100.00;101089.27;1772299;80;21201;-60
2020/12/05 07:48:44;;;;;;;56.20;28.00;;;;;;;-0.05;100.00;101112.05;1763526;80;21774;-61
2020/12/05 07:51:15;;;;;;;44.97;23.90;;;;;;;-0.04;100.00;101107.08;1746330;82;21011;-60
2020/12/05 07:53:44;;;;;;;52.10;31.47;;;;;;;-0.09;100.00;101111.48;1766330;80;21142;-60
2020/12/05 07:56:22;;;;;;;47.53;25.97;;;;;;;-0.09;100.00;101099.59;1762174;80;21176;-61
2020/12/05 07:58:53;;;;;;;55.57;29.13;;;;;;;-0.06;100.00;101111.22;1748221;80;22255;-60
2020/12/05 08:01:49;;;;;;;58.97;29.77;;;;;;;-0.07;100.00;101114.00;1746741;80;21141;-59
2020/12/05 08:04:41;;;;;;;59.43;34.50;;;;;;;-0.01;100.00;101104.16;1744295;80;21205;-62
2020/12/05 08:07:23;;;;;;;56.27;30.23;;;;;;;-0.06;100.00;101102.45;1748501;80;21602;-62
2020/12/05 08:09:52;;;;;;;71.57;37.20;;;;;;;-0.11;100.00;101112.14;1746826;80;22237;-61
2020/12/05 08:12:42;;;;;;;65.50;32.67;;;;;;;-0.10;100.00;101108.52;1746285;82;21634;-60
2020/12/05 08:15:20;;;;;;;63.20;34.60;;;;;;;-0.04;100.00;101111.05;1746373;82;21129;-62
2020/12/05 08:17:48;;;;;;;51.90;26.20;;;;;;;-0.03;100.00;101128.10;1746386;82;21125;-63
2020/12/05 08:20:16;;;;;;;56.90;29.73;;;;;;;0.02;100.00;101121.53;1723473;82;21747;-61
2020/12/05 08:22:45;;;;;;;55.73;31.27;;;;;;;0.01;100.00;101127.31;1746353;82;21205;-61
2020/12/05 08:25:12;;;;;;;52.50;30.17;;;;;;;0.04;100.00;101120.91;1752740;80;21519;-63
2020/12/05 08:27:41;;;;;;;52.93;28.53;;;;;;;0.06;100.00;101115.80;1760714;80;21042;-61
2020/12/05 08:30:09;;;;;;;42.40;24.70;;;;;;;0.02;100.00;101125.50;1761196;80;21567;-64
2020/12/05 08:32:37;;;;;;;48.10;29.67;;;;;;;-0.06;100.00;101133.69;1760959;80;21551;-63
2020/12/05 08:35:10;;;;;;;63.93;31.33;;;;;;;-0.07;100.00;101129.38;1785168;80;21109;-63
2020/12/05 08:37:44;;;;;;;48.70;26.15;;;;;;;-0.08;100.00;101125.55;1785073;80;21543;-61
2020/12/05 08:40:16;;;;;;;63.00;35.07;;;;;;;-0.07;100.00;101133.34;1785185;80;21039;-60
2020/12/05 08:42:48;;;;;;;49.65;27.10;;;;;;;-0.06;100.00;101137.66;1785537;80;25039;-62
2020/12/05 08:45:17;;;;;;;53.33;28.83;;;;;;;-0.08;100.00;101139.60;1774168;80;21192;-62
2020/12/05 08:47:46;;;;;;;49.77;26.73;;;;;;;-0.03;100.00;101145.78;1754248;80;21145;-64
2020/12/05 08:50:30;;;;;;;49.53;29.73;;;;;;;-0.03;100.00;101132.06;1754186;81;22241;-61
2020/12/05 08:53:01;;;;;;;43.53;25.97;;;;;;;0.01;100.00;101129.95;1754056;81;21121;-67
2020/12/05 08:55:30;;;;;;;56.07;30.57;;;;;;;0.01;100.00;101128.63;1763435;80;21606;-61
2020/12/05 08:58:01;;;;;;;46.60;24.87;;;;;;;0.02;100.00;101133.44;1756946;80;20999;-63
2020/12/05 09:00:31;;;;;;;53.27;32.47;;;;;;;-0.05;100.00;101127.92;1756369;80;21161;-61
2020/12/05 09:03:01;;;;;;;52.93;29.17;;;;;;;-0.05;100.00;101122.63;1771521;80;21366;-60
2020/12/05 09:05:30;;;;;;;48.23;22.97;;;;;;;-0.04;100.00;101125.59;1753967;81;21181;-61
2020/12/05 09:07:59;;;;;;;57.83;30.30;;;;;;;-0.04;100.00;101130.88;1762201;80;21107;-62
2020/12/05 09:10:28;;;;;;;42.40;25.20;;;;;;;-0.06;100.00;101135.02;1758835;80;21133;-64
2020/12/05 09:13:05;;;;;;;50.93;29.20;;;;;;;-0.06;100.00;101128.41;1769780;80;21736;-65
2020/12/05 09:15:37;;;;;;;47.60;27.67;;;;;;;-0.10;100.00;101123.55;1754030;81;21368;-65
2020/12/05 09:18:05;;;;;;;51.03;28.30;;;;;;;-0.11;100.00;101118.75;1782482;80;21748;-65
2020/12/05 09:20:33;;;;;;;54.27;24.27;;;;;;;-0.09;100.00;101122.06;1782849;80;21478;-63
2020/12/05 09:23:01;;;;;;;50.20;25.27;;;;;;;-0.04;100.00;101116.34;1761244;80;21582;-64
2020/12/05 09:25:32;;;;;;;43.00;24.10;;;;;;;-0.01;100.00;101124.00;1756012;80;21098;-61
2020/12/05 09:28:01;;;;;;;44.17;24.77;;;;;;;-0.02;100.00;101132.42;1752471;80;21262;-63
2020/12/05 09:30:29;;;;;;;47.50;28.27;;;;;;;0.00;100.00;101129.64;1776282;80;21161;-67
2020/12/05 09:32:57;;;;;;;47.57;27.83;;;;;;;-0.05;100.00;101138.50;1774681;80;21137;-66
2020/12/05 09:35:25;;;;;;;44.80;25.93;;;;;;;-0.10;100.00;101133.65;1755213;80;23325;-65
2020/12/05 09:37:53;;;;;;;45.37;24.80;;;;;;;-0.06;100.00;101136.34;1696365;83;21653;-69
2020/12/05 09:40:21;;;;;;;50.43;22.77;;;;;;;-0.13;100.00;101129.95;1707424;83;21408;-64
2020/12/05 09:42:49;;;;;;;49.43;25.73;;;;;;;-0.11;100.00;101130.66;1723693;83;21144;-62
2020/12/05 09:45:17;;;;;;;47.40;25.50;;;;;;;-0.15;100.00;101129.77;1724533;83;21248;-67
2020/12/05 09:47:45;;;;;;;43.40;25.27;;;;;;;-0.12;100.00;101126.34;1724141;82;21598;-65
2020/12/05 09:50:14;;;;;;;38.23;20.57;;;;;;;-0.14;100.00;101127.44;1695664;83;21160;-67
2020/12/05 09:52:43;;;;;;;38.17;22.20;;;;;;;-0.19;100.00;101118.63;1695582;84;21366;-63
2020/12/05 09:55:11;;;;;;;36.07;21.30;;;;;;;-0.18;100.00;101109.72;1724077;83;21125;-64
2020/12/05 09:57:39;;;;;;;31.77;16.57;;;;;;;-0.20;100.00;101112.19;1721462;83;21620;-64
2020/12/05 10:00:09;;;;;;;39.90;21.97;;;;;;;-0.27;100.00;101126.95;1711916;83;21603;-62
2020/12/05 10:02:37;;;;;;;33.13;18.70;;;;;;;-0.31;100.00;101132.18;1692657;84;21158;-63
2020/12/05 10:05:06;;;;;;;43.20;25.27;;;;;;;-0.33;100.00;101135.44;1721876;83;21270;-63
2020/12/05 10:07:34;;;;;;;44.03;23.70;;;;;;;-0.35;100.00;101122.88;1687909;83;21186;-65
2020/12/05 10:10:03;;;;;;;46.60;26.27;;;;;;;-0.31;100.00;101118.48;1676525;84;21145;-63
2020/12/05 10:12:34;;;;;;;46.53;27.67;;;;;;;-0.32;100.00;101129.19;1706668;83;21170;-66
2020/12/05 10:15:04;;;;;;;39.20;24.50;;;;;;;-0.31;100.00;101138.30;1686359;84;21177;-63
2020/12/05 10:17:33;;;;;;;44.70;27.07;;;;;;;-0.30;100.00;101136.50;1694947;83;21423;-62
2020/12/05 10:20:05;;;;;;;42.67;24.27;;;;;;;-0.30;100.00;101125.44;1703523;83;21187;-64
2020/12/05 10:22:33;;;;;;;41.03;23.60;;;;;;;-0.35;100.00;101135.61;1721447;83;21121;-64
2020/12/05 10:25:04;;;;;;;43.17;22.53;;;;;;;-0.41;100.00;101136.17;1720651;83;21619;-64
2020/12/05 10:27:31;;;;;;;52.00;28.57;;;;;;;-0.37;100.00;101132.27;1722422;83;21150;-63
2020/12/05 10:29:59;;;;;;;47.73;24.50;;;;;;;-0.36;100.00;101133.94;1718471;83;21331;-63
2020/12/05 10:32:28;;;;;;;41.60;22.13;;;;;;;-0.36;100.00;101130.45;1718352;83;21229;-62
2020/12/05 10:34:55;;;;;;;52.53;28.57;;;;;;;-0.36;100.00;101133.94;1694256;83;21022;-62
2020/12/05 10:37:23;;;;;;;50.23;27.03;;;;;;;-0.37;100.00;101128.78;1723001;83;21225;-62
2020/12/05 10:39:52;;;;;;;41.33;24.47;;;;;;;-0.43;100.00;101126.73;1721647;83;21181;-65
2020/12/05 10:42:20;;;;;;;39.70;25.07;;;;;;;-0.40;100.00;101127.27;1715543;81;21260;-64
2020/12/05 10:44:50;;;;;;;36.87;19.17;;;;;;;-0.51;100.00;101133.56;1707522;84;21235;-64
2020/12/05 10:47:17;;;;;;;32.27;18.40;;;;;;;-0.51;100.00;101131.40;1708702;83;21309;-65
2020/12/05 10:49:45;;;;;;;39.93;26.23;;;;;;;-0.52;100.00;101133.20;1704589;84;21565;-63
2020/12/05 10:52:13;;;;;;;42.53;25.00;;;;;;;-0.49;100.00;101136.06;1719056;83;21230;-63
2020/12/05 10:54:40;;;;;;;39.43;23.77;;;;;;;-0.45;100.00;101136.13;1719635;83;21381;-62
2020/12/05 10:57:08;;;;;;;50.33;28.90;;;;;;;-0.41;100.00;101152.03;1692773;83;21182;-63
2020/12/05 10:59:36;;;;;;;55.87;30.63;;;;;;;-0.49;100.00;101158.53;1697058;83;21614;-63
2020/12/05 11:02:04;;;;;;;40.73;21.17;;;;;;;-0.49;100.00;101155.41;1719011;83;21141;-62
2020/12/05 11:04:31;;;;;;;44.40;25.03;;;;;;;-0.53;100.00;101160.59;1694087;83;21153;-63
2020/12/05 11:07:00;;;;;;;49.13;28.27;;;;;;;-0.49;100.00;101159.37;1695614;83;22293;-65
2020/12/05 11:09:29;;;;;;;42.90;25.50;;;;;;;-0.49;100.00;101155.41;1695677;83;21698;-66
2020/12/05 11:11:57;;;;;;;29.97;19.70;;;;;;;-0.51;100.00;101157.83;1699599;83;21140;-65
2020/12/05 11:14:25;;;;;;;44.23;23.63;;;;;;;-0.55;100.00;101148.52;1712795;83;21133;-63
2020/12/05 11:16:54;;;;;;;43.23;21.23;;;;;;;-0.63;100.00;101150.56;1715339;83;21153;-63